createdAt,value
2022-09-24T00:00:11.728Z,99113.00
2022-09-24T00:01:45.144Z,99109.00
2022-09-24T00:03:19.916Z,99116.00
2022-09-24T00:04:55.090Z,99116.00
2022-09-24T00:06:30.726Z,99113.00
2022-09-24T00:08:04.204Z,99093.00
2022-09-24T00:09:37.586Z,99110.00
2022-09-24T00:11:11.899Z,99125.00
2022-09-24T00:12:47.976Z,99105.00
2022-09-24T00:14:21.606Z,99107.00
2022-09-24T00:15:54.270Z,99106.00
2022-09-24T00:17:27.578Z,99104.00
2022-09-24T00:19:04.447Z,99107.00
2022-09-24T00:20:39.035Z,99097.00
2022-09-24T00:22:12.602Z,99085.00
2022-09-24T00:23:49.585Z,99093.00
2022-09-24T00:25:52.386Z,99087.00
2022-09-24T00:27:25.840Z,99092.00
2022-09-24T00:28:59.943Z,99087.00
2022-09-24T00:30:33.829Z,99092.00
2022-09-24T00:32:07.518Z,99100.00
2022-09-24T00:33:40.851Z,99096.00
2022-09-24T00:35:14.189Z,99100.00
2022-09-24T00:36:48.300Z,99099.00
2022-09-24T00:38:22.842Z,99100.00
2022-09-24T00:39:56.873Z,99100.00
2022-09-24T00:41:33.561Z,99094.00
2022-09-24T00:43:25.611Z,99104.00
2022-09-24T00:45:00.979Z,99082.00
2022-09-24T00:46:41.152Z,99100.00
2022-09-24T00:48:14.894Z,99111.00
2022-09-24T00:49:50.319Z,99095.00
2022-09-24T00:51:27.490Z,99114.00
2022-09-24T00:53:06.257Z,99106.00
2022-09-24T00:54:38.896Z,99108.00
2022-09-24T00:56:16.068Z,99096.00
2022-09-24T00:57:53.716Z,99086.00
2022-09-24T00:59:29.138Z,99090.00
2022-09-24T01:01:09.760Z,99093.00
2022-09-24T01:02:47.298Z,99093.00
2022-09-24T01:04:22.249Z,99098.00
2022-09-24T01:05:57.747Z,99093.00
2022-09-24T01:07:31.585Z,99101.00
2022-09-24T01:09:05.817Z,99087.00
2022-09-24T01:10:58.214Z,99094.00
2022-09-24T01:12:43.070Z,99078.00
2022-09-24T01:14:58.518Z,99091.00
2022-09-24T01:16:45.495Z,99079.00
2022-09-24T01:18:30.192Z,99091.00
2022-09-24T01:20:44.823Z,99094.00
2022-09-24T01:22:40.118Z,99100.00
2022-09-24T01:24:48.828Z,99097.00
2022-09-24T01:26:44.892Z,99085.00
2022-09-24T01:28:38.741Z,99090.00
2022-09-24T01:30:15.447Z,99087.00
2022-09-24T01:31:56.960Z,99089.00
2022-09-24T01:33:34.872Z,99079.00
2022-09-24T01:35:17.031Z,99092.00
2022-09-24T01:36:51.791Z,99064.00
2022-09-24T01:38:34.277Z,99077.00
2022-09-24T01:40:11.822Z,99084.00
2022-09-24T01:41:47.117Z,99090.00
2022-09-24T01:43:25.848Z,99088.00
2022-09-24T01:45:01.925Z,99066.00
2022-09-24T01:46:40.250Z,99055.00
2022-09-24T01:48:14.615Z,99074.00
2022-09-24T01:49:47.309Z,99055.00
2022-09-24T01:51:27.645Z,99077.00
2022-09-24T01:53:08.388Z,99075.00
2022-09-24T01:54:50.262Z,99063.00
2022-09-24T01:56:28.268Z,99066.00
2022-09-24T01:58:09.134Z,99056.00
2022-09-24T01:59:50.209Z,99067.00
2022-09-24T02:01:31.585Z,99068.00
2022-09-24T02:03:14.360Z,99057.00
2022-09-24T02:04:55.172Z,99034.00
2022-09-24T02:06:37.318Z,99047.00
2022-09-24T02:08:18.225Z,99039.00
2022-09-24T02:09:52.023Z,99056.00
2022-09-24T02:11:28.041Z,99038.00
2022-09-24T02:13:08.161Z,99038.00
2022-09-24T02:14:49.003Z,99041.00
2022-09-24T02:16:26.933Z,99039.00
2022-09-24T02:18:07.941Z,99039.00
2022-09-24T02:19:43.684Z,99042.00
2022-09-24T02:21:21.113Z,99033.00
2022-09-24T02:22:58.385Z,99029.00
2022-09-24T02:24:41.704Z,99021.00
2022-09-24T02:26:15.320Z,99030.00
2022-09-24T02:27:48.827Z,99039.00
2022-09-24T02:29:23.119Z,99031.00
2022-09-24T02:31:08.176Z,99024.00
2022-09-24T02:32:44.720Z,99025.00
2022-09-24T02:34:25.613Z,99030.00
2022-09-24T02:36:00.053Z,99035.00
2022-09-24T02:37:38.498Z,99033.00
2022-09-24T02:39:10.887Z,99039.00
2022-09-24T02:40:45.076Z,99040.00
2022-09-24T02:42:21.218Z,99038.00
2022-09-24T02:43:53.866Z,99040.00
2022-09-24T02:45:27.358Z,99042.00
2022-09-24T02:47:01.433Z,99036.00
2022-09-24T02:48:35.493Z,99040.00
2022-09-24T02:50:10.417Z,99048.00
2022-09-24T02:51:46.387Z,99028.00
2022-09-24T02:53:19.717Z,99033.00
2022-09-24T02:54:52.211Z,99015.00
2022-09-24T02:56:25.694Z,99016.00
2022-09-24T02:57:59.177Z,99043.00
2022-09-24T03:00:46.233Z,99041.00
2022-09-24T03:02:19.858Z,99034.00
2022-09-24T03:03:52.598Z,99042.00
2022-09-24T03:05:26.786Z,99033.00
2022-09-24T03:07:01.478Z,99036.00
2022-09-24T03:08:35.142Z,99041.00
2022-09-24T03:10:10.222Z,99038.00
2022-09-24T03:11:44.127Z,99031.00
2022-09-24T03:13:17.980Z,99006.00
2022-09-24T03:14:51.588Z,99023.00
2022-09-24T03:16:25.046Z,99027.00
2022-09-24T03:17:58.347Z,99029.00
2022-09-24T03:19:31.789Z,99014.00
2022-09-24T03:21:08.780Z,99020.00
2022-09-24T03:22:44.169Z,99021.00
2022-09-24T03:24:17.705Z,99009.00
2022-09-24T03:25:51.303Z,99016.00
2022-09-24T03:27:24.806Z,99027.00
2022-09-24T03:28:58.081Z,99006.00
2022-09-24T03:30:49.033Z,99013.00
2022-09-24T03:32:21.496Z,99007.00
2022-09-24T03:33:55.868Z,99022.00
2022-09-24T03:35:29.257Z,99015.00
2022-09-24T03:37:03.432Z,99014.00
2022-09-24T03:38:40.607Z,99015.00
2022-09-24T03:40:14.188Z,99014.00
2022-09-24T03:41:47.677Z,99013.00
2022-09-24T03:43:20.320Z,99008.00
2022-09-24T03:44:54.104Z,99006.00
2022-09-24T03:46:28.449Z,99001.00
2022-09-24T03:48:02.560Z,99004.00
2022-09-24T03:49:34.880Z,98991.00
2022-09-24T03:51:10.912Z,99004.00
2022-09-24T03:52:43.303Z,98996.00
2022-09-24T03:54:18.021Z,98999.00
2022-09-24T03:55:57.430Z,99000.00
2022-09-24T03:57:29.921Z,99004.00
2022-09-24T03:59:03.674Z,98995.00
2022-09-24T04:00:40.911Z,98989.00
2022-09-24T04:02:15.592Z,98997.00
2022-09-24T04:03:50.089Z,98997.00
2022-09-24T04:05:23.559Z,99005.00
2022-09-24T04:06:57.112Z,99000.00
2022-09-24T04:08:31.569Z,98985.00
2022-09-24T04:10:06.741Z,99003.00
2022-09-24T04:11:40.085Z,99005.00
2022-09-24T04:13:12.555Z,98999.00
2022-09-24T04:14:45.850Z,98982.00
2022-09-24T04:16:19.263Z,99006.00
2022-09-24T04:17:52.225Z,99000.00
2022-09-24T04:19:26.736Z,98991.00
2022-09-24T04:21:01.342Z,98994.00
2022-09-24T04:22:33.977Z,98972.00
2022-09-24T04:24:08.849Z,98996.00
2022-09-24T04:25:43.730Z,98997.00
2022-09-24T04:27:16.016Z,98996.00
2022-09-24T04:28:50.334Z,98990.00
2022-09-24T04:30:25.894Z,98985.00
2022-09-24T04:31:59.277Z,98988.00
2022-09-24T04:33:32.694Z,98968.00
2022-09-24T04:35:07.905Z,98991.00
2022-09-24T04:36:41.208Z,98988.00
2022-09-24T04:38:15.319Z,98976.00
2022-09-24T04:39:48.371Z,98985.00
2022-09-24T04:41:23.321Z,98985.00
2022-09-24T04:42:56.778Z,98982.00
2022-09-24T04:44:30.302Z,98970.00
2022-09-24T04:46:04.891Z,98980.00
2022-09-24T04:47:40.799Z,98989.00
2022-09-24T04:49:14.330Z,98981.00
2022-09-24T04:50:46.959Z,98961.00
2022-09-24T04:52:20.596Z,98979.00
2022-09-24T04:53:54.713Z,98974.00
2022-09-24T04:55:28.922Z,98991.00
2022-09-24T04:57:02.593Z,98980.00
2022-09-24T04:58:36.164Z,98980.00
2022-09-24T05:00:15.400Z,98980.00
2022-09-24T05:01:49.564Z,98981.00
2022-09-24T05:03:23.369Z,98989.00
2022-09-24T05:04:56.650Z,98971.00
2022-09-24T05:06:30.341Z,98976.00
2022-09-24T05:08:04.629Z,98984.00
2022-09-24T05:09:38.542Z,98983.00
2022-09-24T05:11:13.244Z,98984.00
2022-09-24T05:12:48.304Z,98984.00
2022-09-24T05:14:21.724Z,98977.00
2022-09-24T05:15:55.450Z,98978.00
2022-09-24T05:17:28.808Z,98979.00
2022-09-24T05:19:04.776Z,98981.00
2022-09-24T05:20:38.801Z,98973.00
2022-09-24T05:22:12.639Z,98978.00
2022-09-24T05:23:46.351Z,98976.00
2022-09-24T05:25:22.647Z,98979.00
2022-09-24T05:27:09.879Z,98964.00
2022-09-24T05:28:43.590Z,98974.00
2022-09-24T05:30:18.559Z,98969.00
2022-09-24T05:31:51.234Z,98959.00
2022-09-24T05:33:24.890Z,98970.00
2022-09-24T05:34:58.995Z,98975.00
2022-09-24T05:36:32.985Z,98966.00
2022-09-24T05:38:06.953Z,98974.00
2022-09-24T05:39:40.373Z,98969.00
2022-09-24T05:41:13.032Z,98972.00
2022-09-24T05:42:46.734Z,98978.00
2022-09-24T05:44:21.737Z,98968.00
2022-09-24T05:45:57.043Z,98973.00
2022-09-24T05:47:30.785Z,98946.00
2022-09-24T05:49:04.930Z,98954.00
2022-09-24T05:50:38.376Z,98968.00
2022-09-24T05:52:12.090Z,98970.00
2022-09-24T05:53:45.937Z,98966.00
2022-09-24T05:55:20.098Z,98968.00
2022-09-24T05:56:54.955Z,98966.00
2022-09-24T05:58:28.498Z,98957.00
2022-09-24T06:00:03.503Z,98968.00
2022-09-24T06:01:59.633Z,98974.00
2022-09-24T06:03:33.232Z,98980.00
2022-09-24T06:05:08.572Z,98975.00
2022-09-24T06:06:43.389Z,98974.00
2022-09-24T06:08:18.145Z,98972.00
2022-09-24T06:09:52.068Z,98971.00
2022-09-24T06:11:25.991Z,98969.00
2022-09-24T06:13:00.322Z,98978.00
2022-09-24T06:14:34.356Z,98972.00
2022-09-24T06:16:09.707Z,98980.00
2022-09-24T06:17:45.207Z,98973.00
2022-09-24T06:19:18.725Z,98979.00
2022-09-24T06:20:52.492Z,98978.00
2022-09-24T06:22:28.581Z,98978.00
2022-09-24T06:24:03.163Z,98978.00
2022-09-24T06:25:36.547Z,98978.00
2022-09-24T06:27:09.856Z,98982.00
2022-09-24T06:28:43.800Z,98977.00
2022-09-24T06:30:17.440Z,98981.00
2022-09-24T06:31:53.242Z,98985.00
2022-09-24T06:33:28.586Z,98984.00
2022-09-24T06:35:02.160Z,98987.00
2022-09-24T06:36:36.034Z,98986.00
2022-09-24T06:38:13.560Z,98984.00
2022-09-24T06:39:46.909Z,98985.00
2022-09-24T06:41:20.268Z,98989.00
2022-09-24T06:42:54.101Z,98987.00
2022-09-24T06:44:27.794Z,98992.00
2022-09-24T06:46:03.535Z,98988.00
2022-09-24T06:47:36.856Z,98990.00
2022-09-24T06:49:12.354Z,98996.00
2022-09-24T06:50:47.447Z,98995.00
2022-09-24T06:52:21.121Z,98983.00
2022-09-24T06:53:54.636Z,98986.00
2022-09-24T06:55:28.358Z,99001.00
2022-09-24T06:57:01.610Z,98999.00
2022-09-24T06:58:35.102Z,99002.00
2022-09-24T07:00:10.363Z,98996.00
2022-09-24T07:01:44.234Z,98993.00
2022-09-24T07:03:18.194Z,98998.00
2022-09-24T07:04:53.070Z,98990.00
2022-09-24T07:06:26.530Z,98999.00
2022-09-24T07:07:59.175Z,99000.00
2022-09-24T07:09:32.675Z,98990.00
2022-09-24T07:11:06.519Z,98997.00
2022-09-24T07:12:41.718Z,99000.00
2022-09-24T07:14:15.399Z,98990.00
2022-09-24T07:15:50.801Z,99000.00
2022-09-24T07:17:25.617Z,99001.00
2022-09-24T07:19:01.506Z,99000.00
2022-09-24T07:20:36.998Z,99006.00
2022-09-24T07:22:10.335Z,99003.00
2022-09-24T07:23:43.915Z,98997.00
2022-09-24T07:25:17.679Z,99004.00
2022-09-24T07:26:51.036Z,99015.00
2022-09-24T07:28:24.634Z,99002.00
2022-09-24T07:29:57.935Z,99010.00
2022-09-24T07:31:31.913Z,99011.00
2022-09-24T07:33:06.173Z,99016.00
2022-09-24T07:34:39.432Z,99015.00
2022-09-24T07:36:14.318Z,99021.00
2022-09-24T07:37:47.711Z,99019.00
2022-09-24T07:39:21.039Z,99026.00
2022-09-24T07:40:59.139Z,99021.00
2022-09-24T07:42:32.813Z,99016.00
2022-09-24T07:44:07.772Z,99023.00
2022-09-24T07:45:42.126Z,99030.00
2022-09-24T07:47:16.916Z,99025.00
2022-09-24T07:48:50.511Z,99025.00
2022-09-24T07:50:24.202Z,99030.00
2022-09-24T07:51:59.067Z,99027.00
2022-09-24T07:53:32.724Z,99029.00
2022-09-24T07:55:07.882Z,99024.00
2022-09-24T07:56:41.446Z,99032.00
2022-09-24T07:58:16.119Z,99024.00
2022-09-24T07:59:51.431Z,99026.00
2022-09-24T08:01:25.559Z,99034.00
2022-09-24T08:02:59.298Z,99031.00
2022-09-24T08:04:32.554Z,99037.00
2022-09-24T08:06:06.387Z,99021.00
2022-09-24T08:07:41.156Z,99022.00
2022-09-24T08:09:16.624Z,99028.00
2022-09-24T08:10:50.117Z,99023.00
2022-09-24T08:12:27.118Z,99034.00
2022-09-24T08:14:01.084Z,99033.00
2022-09-24T08:15:35.043Z,99028.00
2022-09-24T08:17:08.448Z,99031.00
2022-09-24T08:18:44.478Z,99038.00
2022-09-24T08:20:18.381Z,99038.00
2022-09-24T08:21:51.864Z,99030.00
2022-09-24T08:23:27.728Z,99035.00
2022-09-24T08:25:01.109Z,99031.00
2022-09-24T08:26:34.408Z,99030.00
2022-09-24T08:28:11.221Z,99030.00
2022-09-24T08:29:45.517Z,99030.00
2022-09-24T08:31:19.184Z,99030.00
2022-09-24T08:32:52.581Z,99034.00
2022-09-24T08:34:26.298Z,99028.00
2022-09-24T08:36:01.319Z,99021.00
2022-09-24T08:37:34.676Z,99033.00
2022-09-24T08:39:10.485Z,99036.00
2022-09-24T08:40:50.833Z,99032.00
2022-09-24T08:42:38.057Z,99031.00
2022-09-24T08:44:39.835Z,99034.00
2022-09-24T08:46:41.509Z,99029.00
2022-09-24T08:48:22.338Z,99029.00
2022-09-24T08:50:10.119Z,99022.00
2022-09-24T08:52:07.599Z,99023.00
2022-09-24T08:53:49.976Z,99025.00
2022-09-24T08:55:34.967Z,99029.00
2022-09-24T08:57:17.941Z,99028.00
2022-09-24T08:58:59.084Z,99026.00
2022-09-24T09:00:48.578Z,99027.00
2022-09-24T09:02:42.297Z,99035.00
2022-09-24T09:04:28.661Z,99019.00
2022-09-24T09:06:10.045Z,99035.00
2022-09-24T09:07:56.328Z,99034.00
2022-09-24T09:09:44.251Z,99034.00
2022-09-24T09:11:24.486Z,99029.00
2022-09-24T09:13:07.676Z,99031.00
2022-09-24T09:14:51.145Z,99029.00
2022-09-24T09:16:30.331Z,99023.00
2022-09-24T09:18:15.066Z,99035.00
2022-09-24T09:19:55.565Z,99035.00
2022-09-24T09:21:37.962Z,99032.00
2022-09-24T09:23:20.679Z,99029.00
2022-09-24T09:25:01.146Z,99027.00
2022-09-24T09:26:38.892Z,99033.00
2022-09-24T09:28:15.371Z,99028.00
2022-09-24T09:30:01.808Z,99033.00
2022-09-24T09:31:55.430Z,99028.00
2022-09-24T09:33:46.410Z,99036.00
2022-09-24T09:35:30.247Z,99029.00
2022-09-24T09:37:24.933Z,99031.00
2022-09-24T09:39:15.133Z,99042.00
2022-09-24T09:41:00.846Z,99038.00
2022-09-24T09:42:40.377Z,99034.00
2022-09-24T09:44:21.934Z,99032.00
2022-09-24T09:46:10.560Z,99027.00
2022-09-24T09:47:50.511Z,99030.00
2022-09-24T09:49:28.965Z,99025.00
2022-09-24T09:51:07.401Z,99028.00
2022-09-24T09:52:40.468Z,99029.00
2022-09-24T09:54:14.234Z,99031.00
2022-09-24T09:55:55.760Z,99031.00
2022-09-24T09:57:28.184Z,99025.00
2022-09-24T09:59:17.969Z,99023.00
2022-09-24T10:00:52.408Z,99028.00
2022-09-24T10:02:31.401Z,99029.00
2022-09-24T10:04:06.719Z,99025.00
2022-09-24T10:05:40.623Z,99009.00
2022-09-24T10:07:17.061Z,99021.00
2022-09-24T10:08:50.867Z,99020.00
2022-09-24T10:10:25.922Z,99020.00
2022-09-24T10:12:16.971Z,99030.00
2022-09-24T10:14:10.756Z,99026.00
2022-09-24T10:15:53.176Z,99015.00
2022-09-24T10:17:31.894Z,99013.00
2022-09-24T10:19:05.994Z,99018.00
2022-09-24T10:20:39.357Z,99011.00
2022-09-24T10:22:22.052Z,99019.00
2022-09-24T10:24:03.827Z,99013.00
2022-09-24T10:25:38.123Z,99010.00
2022-09-24T10:27:22.332Z,99019.00
2022-09-24T10:29:13.560Z,99022.00
2022-09-24T10:31:02.187Z,99012.00
2022-09-24T10:32:35.738Z,99019.00
2022-09-24T10:34:28.581Z,99015.00
2022-09-24T10:36:07.881Z,99021.00
2022-09-24T10:37:53.669Z,99024.00
2022-09-24T10:39:27.301Z,99024.00
2022-09-24T10:41:01.531Z,99020.00
2022-09-24T10:42:34.985Z,99022.00
2022-09-24T10:44:12.908Z,99025.00
2022-09-24T10:46:14.872Z,99030.00
2022-09-24T10:47:58.524Z,99018.00
2022-09-24T10:49:56.265Z,99023.00
2022-09-24T10:51:40.792Z,99031.00
2022-09-24T10:53:22.833Z,99026.00
2022-09-24T10:55:07.372Z,99031.00
2022-09-24T10:56:49.219Z,99027.00
2022-09-24T10:58:57.109Z,99039.00
2022-09-24T11:00:40.836Z,99035.00
2022-09-24T11:02:46.642Z,99036.00
2022-09-24T11:04:39.082Z,99028.00
2022-09-24T11:06:49.651Z,99038.00
2022-09-24T11:08:47.205Z,99033.00
2022-09-24T11:10:41.453Z,99038.00
2022-09-24T11:12:31.307Z,99042.00
2022-09-24T11:14:23.704Z,99036.00
2022-09-24T11:16:39.127Z,99037.00
2022-09-24T11:18:38.664Z,99044.00
2022-09-24T11:20:36.500Z,99039.00
2022-09-24T11:22:16.718Z,99040.00
2022-09-24T11:24:36.368Z,99042.00
2022-09-24T11:26:26.991Z,99041.00
2022-09-24T11:28:24.536Z,99040.00
2022-09-24T11:30:13.137Z,99038.00
2022-09-24T11:32:02.103Z,99048.00
2022-09-24T11:34:09.209Z,99039.00
2022-09-24T11:36:08.570Z,99040.00
2022-09-24T11:37:59.458Z,99037.00
2022-09-24T11:39:52.895Z,99036.00
2022-09-24T11:41:44.648Z,99040.00
2022-09-24T11:43:48.341Z,99031.00
2022-09-24T11:45:49.914Z,99050.00
2022-09-24T11:47:41.662Z,99048.00
2022-09-24T11:49:38.897Z,99041.00
2022-09-24T11:51:31.095Z,99044.00
2022-09-24T11:53:14.753Z,99041.00
2022-09-24T11:55:00.125Z,99041.00
2022-09-24T11:56:41.436Z,99043.00
2022-09-24T11:58:21.835Z,99044.00
2022-09-24T12:00:02.042Z,99041.00
2022-09-24T12:02:01.349Z,99041.00
2022-09-24T12:03:45.435Z,99043.00
2022-09-24T12:05:29.660Z,99050.00
2022-09-24T12:07:13.421Z,99047.00
2022-09-24T12:08:57.670Z,99050.00
2022-09-24T12:10:39.696Z,99048.00
2022-09-24T12:12:20.065Z,99043.00
2022-09-24T12:14:04.467Z,99042.00
2022-09-24T12:15:49.498Z,99047.00
2022-09-24T12:17:34.058Z,99052.00
2022-09-24T12:19:18.201Z,99044.00
2022-09-24T12:20:56.587Z,99044.00
2022-09-24T12:22:32.377Z,99058.00
2022-09-24T12:24:15.473Z,99057.00
2022-09-24T12:25:51.423Z,99051.00
2022-09-24T12:27:34.592Z,99052.00
2022-09-24T12:29:51.773Z,99049.00
2022-09-24T12:31:51.532Z,99043.00
2022-09-24T12:33:36.397Z,99048.00
2022-09-24T12:35:23.188Z,99043.00
2022-09-24T12:37:04.739Z,99055.00
2022-09-24T12:38:45.943Z,99051.00
2022-09-24T12:40:57.894Z,99047.00
2022-09-24T12:42:40.148Z,99044.00
2022-09-24T12:44:23.295Z,99043.00
2022-09-24T12:46:02.759Z,99038.00
2022-09-24T12:47:48.764Z,99048.00
2022-09-24T12:49:35.292Z,99049.00
2022-09-24T12:51:10.410Z,99049.00
2022-09-24T12:52:44.578Z,99047.00
2022-09-24T12:54:28.432Z,99048.00
2022-09-24T12:56:03.872Z,99053.00
2022-09-24T12:57:42.614Z,99041.00
2022-09-24T12:59:27.205Z,99055.00
2022-09-24T13:01:14.883Z,99041.00
2022-09-24T13:02:52.184Z,99042.00
2022-09-24T13:04:30.208Z,99042.00
2022-09-24T13:06:05.975Z,99042.00
2022-09-24T13:07:42.080Z,99032.00
2022-09-24T13:09:34.566Z,99028.00
2022-09-24T13:11:30.504Z,99043.00
2022-09-24T13:13:23.115Z,99040.00
2022-09-24T13:15:02.612Z,99039.00
2022-09-24T13:16:41.187Z,99036.00
2022-09-24T13:18:24.095Z,99032.00
2022-09-24T13:20:08.241Z,99022.00
2022-09-24T13:21:41.789Z,99031.00
2022-09-24T13:23:44.079Z,99022.00
2022-09-24T13:25:24.680Z,99026.00
2022-09-24T13:27:21.567Z,99035.00
2022-09-24T13:28:58.342Z,99031.00
2022-09-24T13:30:41.511Z,99037.00
2022-09-24T13:32:22.895Z,99027.00
2022-09-24T13:34:02.560Z,99025.00
2022-09-24T13:35:49.167Z,99034.00
2022-09-24T13:37:32.979Z,99033.00
2022-09-24T13:39:16.341Z,99032.00
2022-09-24T13:40:58.709Z,99031.00
2022-09-24T13:42:38.748Z,99025.00
2022-09-24T13:44:21.518Z,99034.00
2022-09-24T13:45:55.452Z,99030.00
2022-09-24T13:47:36.123Z,99031.00
2022-09-24T13:49:18.625Z,99033.00
2022-09-24T13:50:54.679Z,99028.00
2022-09-24T13:52:36.890Z,99034.00
2022-09-24T13:54:23.352Z,99036.00
2022-09-24T13:56:03.843Z,99026.00
2022-09-24T13:57:46.009Z,99026.00
2022-09-24T13:59:19.642Z,99026.00
2022-09-24T14:00:53.428Z,99028.00
2022-09-24T14:02:29.802Z,99023.00
2022-09-24T14:04:08.840Z,99018.00
2022-09-24T14:05:43.199Z,99026.00
2022-09-24T14:07:21.646Z,99026.00
2022-09-24T14:08:55.339Z,99018.00
2022-09-24T14:10:29.648Z,99024.00
2022-09-24T14:12:15.303Z,99027.00
2022-09-24T14:13:48.893Z,99026.00
2022-09-24T14:15:22.275Z,99029.00
2022-09-24T14:17:07.467Z,99023.00
2022-09-24T14:18:43.250Z,99024.00
2022-09-24T14:20:23.347Z,99022.00
2022-09-24T14:22:00.298Z,99030.00
2022-09-24T14:23:42.936Z,99028.00
2022-09-24T14:25:23.228Z,99023.00
2022-09-24T14:27:01.820Z,99032.00
2022-09-24T14:28:36.240Z,99023.00
2022-09-24T14:30:20.237Z,99025.00
2022-09-24T14:31:59.449Z,99029.00
2022-09-24T14:33:35.245Z,99033.00
2022-09-24T14:35:19.468Z,99028.00
2022-09-24T14:36:53.949Z,99026.00
2022-09-24T14:38:36.251Z,99031.00
2022-09-24T14:40:16.851Z,99023.00
2022-09-24T14:41:50.330Z,99031.00
2022-09-24T14:43:35.105Z,99025.00
2022-09-24T14:45:11.851Z,99028.00
2022-09-24T14:46:51.667Z,99033.00
2022-09-24T14:48:30.769Z,99035.00
2022-09-24T14:50:08.235Z,99026.00
2022-09-24T14:51:54.490Z,99039.00
2022-09-24T14:53:33.154Z,99025.00
2022-09-24T14:55:18.926Z,99032.00
2022-09-24T14:56:52.823Z,99029.00
2022-09-24T14:58:39.695Z,99033.00
2022-09-24T15:00:31.079Z,99028.00
2022-09-24T15:02:17.539Z,99020.00
2022-09-24T15:03:54.574Z,99029.00
2022-09-24T15:05:30.708Z,99012.00
2022-09-24T15:07:04.693Z,99020.00
2022-09-24T15:08:38.636Z,99022.00
2022-09-24T15:10:24.072Z,99014.00
2022-09-24T15:12:22.579Z,99029.00
2022-09-24T15:14:14.731Z,99019.00
2022-09-24T15:15:48.435Z,99019.00
2022-09-24T15:17:26.872Z,99025.00
2022-09-24T15:19:16.792Z,99024.00
2022-09-24T15:20:52.976Z,99023.00
2022-09-24T15:22:28.197Z,99014.00
2022-09-24T15:24:02.443Z,99017.00
2022-09-24T15:25:38.607Z,99013.00
2022-09-24T15:27:23.196Z,99018.00
2022-09-24T15:28:58.384Z,99015.00
2022-09-24T15:30:32.374Z,99006.00
2022-09-24T15:32:18.171Z,99009.00
2022-09-24T15:33:51.569Z,99007.00
2022-09-24T15:35:25.380Z,99012.00
2022-09-24T15:37:00.644Z,99009.00
2022-09-24T15:38:33.972Z,99008.00
2022-09-24T15:40:17.305Z,99011.00
2022-09-24T15:41:52.457Z,99013.00
2022-09-24T15:43:26.649Z,99024.00
2022-09-24T15:45:00.348Z,99023.00
2022-09-24T15:46:34.350Z,99021.00
2022-09-24T15:48:07.916Z,99023.00
2022-09-24T15:49:42.491Z,99024.00
2022-09-24T15:51:19.780Z,99031.00
2022-09-24T15:52:58.728Z,99029.00
2022-09-24T15:54:32.346Z,99028.00
2022-09-24T15:56:06.442Z,99026.00
2022-09-24T15:57:40.384Z,99022.00
2022-09-24T15:59:15.350Z,99025.00
2022-09-24T16:00:49.010Z,99030.00
2022-09-24T16:02:27.306Z,99024.00
2022-09-24T16:04:00.724Z,99031.00
2022-09-24T16:05:34.059Z,99034.00
2022-09-24T16:07:07.421Z,99025.00
2022-09-24T16:08:41.970Z,99028.00
2022-09-24T16:10:17.718Z,99030.00
2022-09-24T16:11:51.068Z,99030.00
2022-09-24T16:13:26.244Z,99033.00
2022-09-24T16:15:00.635Z,99032.00
2022-09-24T16:16:34.381Z,99036.00
2022-09-24T16:18:10.227Z,99036.00
2022-09-24T16:19:42.531Z,99036.00
2022-09-24T16:21:16.625Z,99037.00
2022-09-24T16:22:49.876Z,99037.00
2022-09-24T16:24:23.548Z,99035.00
2022-09-24T16:25:58.820Z,99035.00
2022-09-24T16:27:33.783Z,99042.00
2022-09-24T16:29:10.489Z,99038.00
2022-09-24T16:30:44.098Z,99040.00
2022-09-24T16:32:17.635Z,99040.00
2022-09-24T16:33:50.863Z,99039.00
2022-09-24T16:35:24.169Z,99038.00
2022-09-24T16:36:57.559Z,99037.00
2022-09-24T16:38:34.252Z,99034.00
2022-09-24T16:40:09.375Z,99042.00
2022-09-24T16:41:44.302Z,99040.00
2022-09-24T16:43:17.668Z,99025.00
2022-09-24T16:44:52.370Z,99048.00
2022-09-24T16:46:25.995Z,99038.00
2022-09-24T16:47:59.381Z,99042.00
2022-09-24T16:49:32.753Z,99039.00
2022-09-24T16:51:09.090Z,99054.00
2022-09-24T16:52:44.813Z,99035.00
2022-09-24T16:54:19.741Z,99040.00
2022-09-24T16:55:53.530Z,99041.00
2022-09-24T16:57:27.273Z,99031.00
2022-09-24T16:59:00.773Z,99039.00
2022-09-24T17:00:35.435Z,99036.00
2022-09-24T17:02:09.032Z,99032.00
2022-09-24T17:03:42.825Z,99030.00
2022-09-24T17:05:16.361Z,99039.00
2022-09-24T17:06:49.695Z,99036.00
2022-09-24T17:08:23.524Z,99040.00
2022-09-24T17:10:15.470Z,99034.00
2022-09-24T17:11:48.455Z,99037.00
2022-09-24T17:13:23.085Z,99044.00
2022-09-24T17:14:57.599Z,99038.00
2022-09-24T17:16:32.303Z,99050.00
2022-09-24T17:18:05.751Z,99047.00
2022-09-24T17:19:39.412Z,99051.00
2022-09-24T17:21:14.655Z,99048.00
2022-09-24T17:22:49.657Z,99047.00
2022-09-24T17:24:22.333Z,99051.00
2022-09-24T17:26:03.504Z,99041.00
2022-09-24T17:27:36.880Z,99041.00
2022-09-24T17:29:10.737Z,99041.00
2022-09-24T17:30:45.952Z,99042.00
2022-09-24T17:32:20.803Z,99044.00
2022-09-24T17:33:56.151Z,99049.00
2022-09-24T17:35:29.659Z,99063.00
2022-09-24T17:37:03.229Z,99059.00
2022-09-24T17:38:38.752Z,99057.00
2022-09-24T17:40:12.712Z,99049.00
2022-09-24T17:41:46.163Z,99056.00
2022-09-24T17:43:19.358Z,99057.00
2022-09-24T17:44:52.680Z,99049.00
2022-09-24T17:46:28.581Z,99053.00
2022-09-24T17:48:05.904Z,99058.00
2022-09-24T17:49:39.154Z,99060.00
2022-09-24T17:51:15.255Z,99058.00
2022-09-24T17:52:50.851Z,99059.00
2022-09-24T17:54:26.843Z,99065.00
2022-09-24T17:56:00.934Z,99063.00
2022-09-24T17:57:34.412Z,99061.00
2022-09-24T17:59:10.201Z,99061.00
2022-09-24T18:00:43.702Z,99071.00
2022-09-24T18:02:17.077Z,99065.00
2022-09-24T18:03:56.219Z,99070.00
2022-09-24T18:05:30.010Z,99068.00
2022-09-24T18:07:03.353Z,99071.00
2022-09-24T18:08:38.282Z,99073.00
2022-09-24T18:10:11.743Z,99077.00
2022-09-24T18:11:47.687Z,99073.00
2022-09-24T18:13:21.273Z,99079.00
2022-09-24T18:14:54.520Z,99074.00
2022-09-24T18:16:30.994Z,99070.00
2022-09-24T18:18:04.659Z,99073.00
2022-09-24T18:19:39.337Z,99080.00
2022-09-24T18:21:15.285Z,99076.00
2022-09-24T18:22:49.139Z,99081.00
2022-09-24T18:24:22.860Z,99080.00
2022-09-24T18:25:56.866Z,99074.00
2022-09-24T18:27:32.139Z,99074.00
2022-09-24T18:29:10.046Z,99086.00
2022-09-24T18:30:44.117Z,99088.00
2022-09-24T18:32:19.291Z,99084.00
2022-09-24T18:33:55.331Z,99079.00
2022-09-24T18:35:30.044Z,99085.00
2022-09-24T18:37:03.967Z,99084.00
2022-09-24T18:38:37.801Z,99091.00
2022-09-24T18:40:12.727Z,99091.00
2022-09-24T18:41:46.093Z,99086.00
2022-09-24T18:43:19.488Z,99076.00
2022-09-24T18:44:52.847Z,99081.00
2022-09-24T18:46:29.956Z,99081.00
2022-09-24T18:48:04.107Z,99082.00
2022-09-24T18:49:38.072Z,99091.00
2022-09-24T18:51:18.825Z,99085.00
2022-09-24T18:52:53.504Z,99081.00
2022-09-24T18:54:26.784Z,99084.00
2022-09-24T18:56:05.254Z,99080.00
2022-09-24T18:57:38.736Z,99091.00
2022-09-24T18:59:15.170Z,99100.00
2022-09-24T19:00:51.947Z,99087.00
2022-09-24T19:02:26.348Z,99098.00
2022-09-24T19:04:01.064Z,99088.00
2022-09-24T19:05:35.513Z,99095.00
2022-09-24T19:07:10.944Z,99092.00
2022-09-24T19:08:44.461Z,99083.00
2022-09-24T19:10:17.898Z,99092.00
2022-09-24T19:11:51.620Z,99089.00
2022-09-24T19:13:26.733Z,99090.00
2022-09-24T19:15:00.433Z,99093.00
2022-09-24T19:16:33.913Z,99098.00